Blawenburg, New Jersey
Current Conditions -  °F | °C
As of 9:15 AM on Thursday 23 Oct 2014 (Local Time) from KTTN Reporting Station
Light Rain Light Rain  
Wind Chill: 50°   Ceiling: 3500
Heat Index: 50°   Visibility: 6mi
Dew Point: 46°   Wind: 10mph
Humidity: 86%   Direction: 330°NNW
Pressure: 29.74"   Gusts: NA
Location:  40.41°N, 74.7°W
Report Text: KTTN 231315Z 33009KT 6SM -RA BR SCT020 BKN035 OVC050 10/08 A2974 RMK AO2 P0001 T01000078
Loading
Personal Weather Stations






























Interactive Weather Map
Tropical Storm Tracking
New forecast layout! Learn more

10-Day Weather Forecast

Advertisements
Track Severe Weather on mobile